sensor_id;sensor_type;location;lat;lon;timestamp;P1;durP1;ratioP1;P2;durP2;ratioP2
65033;SDS011;51601;51.356;12.458;2023-01-10T00:02:44;7.15;;;2.35;;
65033;SDS011;51601;51.356;12.458;2023-01-10T00:07:08;8.48;;;3.10;;
65033;SDS011;51601;51.356;12.458;2023-01-10T00:11:31;6.60;;;2.60;;
65033;SDS011;51601;51.356;12.458;2023-01-10T00:16:13;7.32;;;2.25;;
65033;SDS011;51601;51.356;12.458;2023-01-10T00:20:38;7.20;;;2.40;;
65033;SDS011;51601;51.356;12.458;2023-01-10T00:25:04;6.47;;;1.90;;
65033;SDS011;51601;51.356;12.458;2023-01-10T00:29:28;6.35;;;2.65;;
65033;SDS011;51601;51.356;12.458;2023-01-10T00:33:53;8.30;;;2.83;;
65033;SDS011;51601;51.356;12.458;2023-01-10T00:38:18;9.90;;;3.57;;
65033;SDS011;51601;51.356;12.458;2023-01-10T00:42:42;6.32;;;2.30;;
65033;SDS011;51601;51.356;12.458;2023-01-10T00:47:23;8.80;;;2.20;;
65033;SDS011;51601;51.356;12.458;2023-01-10T00:51:47;6.13;;;2.00;;
65033;SDS011;51601;51.356;12.458;2023-01-10T00:56:12;6.63;;;2.67;;
65033;SDS011;51601;51.356;12.458;2023-01-10T01:00:36;6.85;;;1.92;;
65033;SDS011;51601;51.356;12.458;2023-01-10T01:05:00;9.40;;;2.38;;
65033;SDS011;51601;51.356;12.458;2023-01-10T01:09:24;5.63;;;2.27;;
65033;SDS011;51601;51.356;12.458;2023-01-10T01:13:50;9.25;;;3.35;;
65033;SDS011;51601;51.356;12.458;2023-01-10T01:18:14;7.78;;;2.67;;
65033;SDS011;51601;51.356;12.458;2023-01-10T01:22:41;10.27;;;3.30;;
65033;SDS011;51601;51.356;12.458;2023-01-10T01:27:05;8.77;;;3.22;;
65033;SDS011;51601;51.356;12.458;2023-01-10T01:31:30;9.63;;;3.58;;
65033;SDS011;51601;51.356;12.458;2023-01-10T01:35:55;10.88;;;3.55;;
65033;SDS011;51601;51.356;12.458;2023-01-10T01:40:19;8.83;;;3.53;;
65033;SDS011;51601;51.356;12.458;2023-01-10T01:44:44;9.80;;;3.30;;
65033;SDS011;51601;51.356;12.458;2023-01-10T01:49:11;12.23;;;3.88;;
65033;SDS011;51601;51.356;12.458;2023-01-10T01:53:39;11.03;;;3.50;;
65033;SDS011;51601;51.356;12.458;2023-01-10T01:58:07;8.70;;;3.58;;
65033;SDS011;51601;51.356;12.458;2023-01-10T02:02:35;10.23;;;4.07;;
65033;SDS011;51601;51.356;12.458;2023-01-10T02:07:20;11.23;;;4.53;;
65033;SDS011;51601;51.356;12.458;2023-01-10T02:11:46;9.95;;;4.03;;
65033;SDS011;51601;51.356;12.458;2023-01-10T02:16:11;9.50;;;4.45;;
65033;SDS011;51601;51.356;12.458;2023-01-10T02:20:37;12.50;;;4.55;;
65033;SDS011;51601;51.356;12.458;2023-01-10T02:25:20;9.17;;;4.33;;
65033;SDS011;51601;51.356;12.458;2023-01-10T02:35:07;12.13;;;4.45;;
65033;SDS011;51601;51.356;12.458;2023-01-10T02:39:41;11.60;;;4.30;;
65033;SDS011;51601;51.356;12.458;2023-01-10T02:44:13;14.27;;;5.55;;
65033;SDS011;51601;51.356;12.458;2023-01-10T02:48:42;10.88;;;4.10;;
65033;SDS011;51601;51.356;12.458;2023-01-10T02:53:08;10.33;;;4.07;;
65033;SDS011;51601;51.356;12.458;2023-01-10T02:57:33;9.40;;;4.20;;
65033;SDS011;51601;51.356;12.458;2023-01-10T03:02:01;7.93;;;2.90;;
65033;SDS011;51601;51.356;12.458;2023-01-10T03:06:28;7.40;;;2.58;;
65033;SDS011;51601;51.356;12.458;2023-01-10T03:10:53;7.40;;;3.17;;
65033;SDS011;51601;51.356;12.458;2023-01-10T03:15:16;9.82;;;3.80;;
65033;SDS011;51601;51.356;12.458;2023-01-10T03:19:42;8.63;;;2.65;;
65033;SDS011;51601;51.356;12.458;2023-01-10T03:24:06;11.60;;;4.20;;
65033;SDS011;51601;51.356;12.458;2023-01-10T03:28:30;9.85;;;3.38;;
65033;SDS011;51601;51.356;12.458;2023-01-10T03:32:53;8.85;;;3.17;;
65033;SDS011;51601;51.356;12.458;2023-01-10T03:37:25;10.67;;;4.17;;
65033;SDS011;51601;51.356;12.458;2023-01-10T03:41:59;11.88;;;3.90;;
65033;SDS011;51601;51.356;12.458;2023-01-10T03:46:34;9.77;;;4.10;;
65033;SDS011;51601;51.356;12.458;2023-01-10T03:51:04;10.95;;;3.53;;
65033;SDS011;51601;51.356;12.458;2023-01-10T03:55:30;10.87;;;4.40;;
65033;SDS011;51601;51.356;12.458;2023-01-10T03:59:56;13.77;;;3.85;;
65033;SDS011;51601;51.356;12.458;2023-01-10T04:04:22;8.77;;;2.90;;
65033;SDS011;51601;51.356;12.458;2023-01-10T04:08:46;12.80;;;4.27;;
65033;SDS011;51601;51.356;12.458;2023-01-10T04:13:10;11.25;;;3.83;;
65033;SDS011;51601;51.356;12.458;2023-01-10T04:17:34;10.60;;;3.80;;
65033;SDS011;51601;51.356;12.458;2023-01-10T04:21:59;10.17;;;3.77;;
65033;SDS011;51601;51.356;12.458;2023-01-10T04:26:23;11.13;;;3.22;;
65033;SDS011;51601;51.356;12.458;2023-01-10T04:30:47;9.48;;;3.75;;
65033;SDS011;51601;51.356;12.458;2023-01-10T04:35:11;9.30;;;4.30;;
65033;SDS011;51601;51.356;12.458;2023-01-10T04:39:36;9.80;;;3.50;;
65033;SDS011;51601;51.356;12.458;2023-01-10T04:44:00;10.95;;;3.97;;
65033;SDS011;51601;51.356;12.458;2023-01-10T04:48:24;11.20;;;4.32;;
65033;SDS011;51601;51.356;12.458;2023-01-10T04:52:48;9.13;;;3.47;;
65033;SDS011;51601;51.356;12.458;2023-01-10T04:57:14;12.45;;;4.50;;
65033;SDS011;51601;51.356;12.458;2023-01-10T05:01:38;8.93;;;3.25;;
65033;SDS011;51601;51.356;12.458;2023-01-10T05:06:02;13.23;;;4.10;;
65033;SDS011;51601;51.356;12.458;2023-01-10T05:10:26;10.77;;;4.18;;
65033;SDS011;51601;51.356;12.458;2023-01-10T05:14:52;12.02;;;4.55;;
65033;SDS011;51601;51.356;12.458;2023-01-10T05:19:15;13.77;;;4.57;;
65033;SDS011;51601;51.356;12.458;2023-01-10T05:23:39;11.17;;;4.13;;
65033;SDS011;51601;51.356;12.458;2023-01-10T05:28:03;11.63;;;4.30;;
65033;SDS011;51601;51.356;12.458;2023-01-10T05:32:29;13.18;;;4.60;;
65033;SDS011;51601;51.356;12.458;2023-01-10T05:36:53;9.47;;;3.90;;
65033;SDS011;51601;51.356;12.458;2023-01-10T05:41:17;9.93;;;3.35;;
65033;SDS011;51601;51.356;12.458;2023-01-10T05:45:41;12.60;;;4.28;;
65033;SDS011;51601;51.356;12.458;2023-01-10T05:50:08;7.07;;;2.97;;
65033;SDS011;51601;51.356;12.458;2023-01-10T05:54:33;7.97;;;3.40;;
65033;SDS011;51601;51.356;12.458;2023-01-10T05:58:56;8.13;;;3.25;;
65033;SDS011;51601;51.356;12.458;2023-01-10T06:03:30;11.02;;;4.10;;
65033;SDS011;51601;51.356;12.458;2023-01-10T06:07:55;8.93;;;3.20;;
65033;SDS011;51601;51.356;12.458;2023-01-10T06:12:20;12.75;;;4.63;;
65033;SDS011;51601;51.356;12.458;2023-01-10T06:16:44;9.63;;;3.15;;
65033;SDS011;51601;51.356;12.458;2023-01-10T06:21:08;10.43;;;4.40;;
65033;SDS011;51601;51.356;12.458;2023-01-10T06:25:34;12.65;;;3.70;;
65033;SDS011;51601;51.356;12.458;2023-01-10T06:30:01;8.02;;;3.22;;
65033;SDS011;51601;51.356;12.458;2023-01-10T06:34:26;9.13;;;3.50;;
65033;SDS011;51601;51.356;12.458;2023-01-10T06:38:49;10.20;;;3.20;;
65033;SDS011;51601;51.356;12.458;2023-01-10T06:43:15;10.27;;;4.25;;
65033;SDS011;51601;51.356;12.458;2023-01-10T06:47:38;10.85;;;4.35;;
65033;SDS011;51601;51.356;12.458;2023-01-10T06:52:02;8.27;;;3.47;;
65033;SDS011;51601;51.356;12.458;2023-01-10T06:56:26;9.52;;;3.67;;
65033;SDS011;51601;51.356;12.458;2023-01-10T07:00:52;8.93;;;3.13;;
65033;SDS011;51601;51.356;12.458;2023-01-10T07:05:16;9.07;;;3.27;;
65033;SDS011;51601;51.356;12.458;2023-01-10T07:09:40;6.70;;;2.65;;
65033;SDS011;51601;51.356;12.458;2023-01-10T07:14:04;8.27;;;3.00;;
65033;SDS011;51601;51.356;12.458;2023-01-10T07:18:29;7.20;;;2.70;;
65033;SDS011;51601;51.356;12.458;2023-01-10T07:22:53;10.20;;;2.70;;
65033;SDS011;51601;51.356;12.458;2023-01-10T07:27:18;7.28;;;2.20;;
65033;SDS011;51601;51.356;12.458;2023-01-10T07:31:41;6.88;;;1.88;;
65033;SDS011;51601;51.356;12.458;2023-01-10T07:36:07;6.23;;;2.37;;
65033;SDS011;51601;51.356;12.458;2023-01-10T07:40:31;7.43;;;2.60;;
65033;SDS011;51601;51.356;12.458;2023-01-10T07:44:55;9.00;;;2.50;;
65033;SDS011;51601;51.356;12.458;2023-01-10T07:49:19;7.63;;;2.07;;
65033;SDS011;51601;51.356;12.458;2023-01-10T07:53:44;6.35;;;2.13;;
65033;SDS011;51601;51.356;12.458;2023-01-10T07:58:08;11.50;;;2.22;;
65033;SDS011;51601;51.356;12.458;2023-01-10T08:02:32;7.70;;;2.30;;
65033;SDS011;51601;51.356;12.458;2023-01-10T08:06:56;7.13;;;2.30;;
65033;SDS011;51601;51.356;12.458;2023-01-10T08:11:21;6.05;;;2.40;;
65033;SDS011;51601;51.356;12.458;2023-01-10T08:15:45;7.57;;;2.55;;
65033;SDS011;51601;51.356;12.458;2023-01-10T08:20:11;8.47;;;2.43;;
65033;SDS011;51601;51.356;12.458;2023-01-10T08:24:35;6.20;;;2.33;;
65033;SDS011;51601;51.356;12.458;2023-01-10T08:29:00;7.45;;;2.33;;
65033;SDS011;51601;51.356;12.458;2023-01-10T08:33:24;10.20;;;3.23;;
65033;SDS011;51601;51.356;12.458;2023-01-10T08:37:48;9.20;;;3.20;;
65033;SDS011;51601;51.356;12.458;2023-01-10T08:42:12;10.80;;;3.63;;
65033;SDS011;51601;51.356;12.458;2023-01-10T08:46:39;8.90;;;3.37;;
65033;SDS011;51601;51.356;12.458;2023-01-10T08:51:06;8.20;;;3.10;;
65033;SDS011;51601;51.356;12.458;2023-01-10T08:55:31;8.27;;;3.42;;
65033;SDS011;51601;51.356;12.458;2023-01-10T08:59:56;12.77;;;3.45;;
65033;SDS011;51601;51.356;12.458;2023-01-10T09:04:22;10.67;;;3.47;;
65033;SDS011;51601;51.356;12.458;2023-01-10T09:08:46;11.20;;;2.90;;
65033;SDS011;51601;51.356;12.458;2023-01-10T09:13:10;9.00;;;2.92;;
65033;SDS011;51601;51.356;12.458;2023-01-10T09:17:34;9.00;;;3.57;;
65033;SDS011;51601;51.356;12.458;2023-01-10T09:21:59;11.95;;;3.63;;
65033;SDS011;51601;51.356;12.458;2023-01-10T09:26:23;7.65;;;3.30;;
65033;SDS011;51601;51.356;12.458;2023-01-10T09:30:47;9.60;;;3.10;;
65033;SDS011;51601;51.356;12.458;2023-01-10T09:35:11;8.10;;;2.95;;
65033;SDS011;51601;51.356;12.458;2023-01-10T09:39:36;11.15;;;3.08;;
65033;SDS011;51601;51.356;12.458;2023-01-10T09:44:02;8.13;;;2.97;;
65033;SDS011;51601;51.356;12.458;2023-01-10T09:48:29;7.13;;;2.93;;
65033;SDS011;51601;51.356;12.458;2023-01-10T09:53:03;10.43;;;2.80;;
65033;SDS011;51601;51.356;12.458;2023-01-10T09:57:33;7.97;;;2.95;;
65033;SDS011;51601;51.356;12.458;2023-01-10T10:01:58;13.23;;;3.30;;
65033;SDS011;51601;51.356;12.458;2023-01-10T10:06:26;12.68;;;3.33;;
65033;SDS011;51601;51.356;12.458;2023-01-10T10:10:53;6.85;;;2.33;;
65033;SDS011;51601;51.356;12.458;2023-01-10T10:15:26;14.40;;;3.40;;
65033;SDS011;51601;51.356;12.458;2023-01-10T10:20:02;8.20;;;2.80;;
65033;SDS011;51601;51.356;12.458;2023-01-10T10:24:45;7.47;;;2.70;;
65033;SDS011;51601;51.356;12.458;2023-01-10T10:29:26;7.38;;;2.28;;
65033;SDS011;51601;51.356;12.458;2023-01-10T10:34:06;9.30;;;2.60;;
65033;SDS011;51601;51.356;12.458;2023-01-10T10:38:36;15.20;;;3.00;;
65033;SDS011;51601;51.356;12.458;2023-01-10T10:43:10;10.98;;;2.67;;
65033;SDS011;51601;51.356;12.458;2023-01-10T10:47:39;11.10;;;3.10;;
65033;SDS011;51601;51.356;12.458;2023-01-10T10:52:13;11.38;;;2.70;;
65033;SDS011;51601;51.356;12.458;2023-01-10T10:56:44;8.32;;;2.90;;
65033;SDS011;51601;51.356;12.458;2023-01-10T11:01:10;7.10;;;2.40;;
65033;SDS011;51601;51.356;12.458;2023-01-10T11:05:36;10.05;;;2.47;;
65033;SDS011;51601;51.356;12.458;2023-01-10T11:10:04;10.57;;;2.53;;
65033;SDS011;51601;51.356;12.458;2023-01-10T11:14:53;10.73;;;2.25;;
65033;SDS011;51601;51.356;12.458;2023-01-10T11:19:18;13.03;;;3.00;;
65033;SDS011;51601;51.356;12.458;2023-01-10T11:23:48;9.93;;;2.80;;
65033;SDS011;51601;51.356;12.458;2023-01-10T11:28:16;9.73;;;2.67;;
65033;SDS011;51601;51.356;12.458;2023-01-10T11:32:47;9.67;;;2.20;;
65033;SDS011;51601;51.356;12.458;2023-01-10T11:37:18;9.85;;;2.30;;
65033;SDS011;51601;51.356;12.458;2023-01-10T11:41:46;8.30;;;2.58;;
65033;SDS011;51601;51.356;12.458;2023-01-10T11:46:12;10.07;;;2.57;;
65033;SDS011;51601;51.356;12.458;2023-01-10T11:50:41;5.50;;;1.98;;
65033;SDS011;51601;51.356;12.458;2023-01-10T11:55:16;9.35;;;2.47;;
65033;SDS011;51601;51.356;12.458;2023-01-10T11:59:48;6.05;;;2.10;;
65033;SDS011;51601;51.356;12.458;2023-01-10T12:04:16;9.13;;;2.37;;
65033;SDS011;51601;51.356;12.458;2023-01-10T12:08:42;8.02;;;2.45;;
65033;SDS011;51601;51.356;12.458;2023-01-10T12:13:11;10.02;;;2.13;;
65033;SDS011;51601;51.356;12.458;2023-01-10T12:17:36;11.57;;;2.57;;
65033;SDS011;51601;51.356;12.458;2023-01-10T12:22:02;16.60;;;2.90;;
65033;SDS011;51601;51.356;12.458;2023-01-10T12:26:30;10.23;;;2.53;;
65033;SDS011;51601;51.356;12.458;2023-01-10T12:30:55;6.27;;;1.70;;
65033;SDS011;51601;51.356;12.458;2023-01-10T12:35:22;6.40;;;2.63;;
65033;SDS011;51601;51.356;12.458;2023-01-10T12:39:52;10.18;;;2.42;;
65033;SDS011;51601;51.356;12.458;2023-01-10T12:44:22;7.40;;;2.20;;
65033;SDS011;51601;51.356;12.458;2023-01-10T12:48:50;6.63;;;2.17;;
65033;SDS011;51601;51.356;12.458;2023-01-10T12:53:23;5.35;;;1.80;;
65033;SDS011;51601;51.356;12.458;2023-01-10T12:57:54;7.43;;;2.13;;
65033;SDS011;51601;51.356;12.458;2023-01-10T13:02:21;11.17;;;2.53;;
65033;SDS011;51601;51.356;12.458;2023-01-10T13:06:48;8.60;;;2.47;;
65033;SDS011;51601;51.356;12.458;2023-01-10T13:11:13;11.73;;;3.25;;
65033;SDS011;51601;51.356;12.458;2023-01-10T13:15:46;8.50;;;2.60;;
65033;SDS011;51601;51.356;12.458;2023-01-10T13:20:25;10.98;;;3.28;;
65033;SDS011;51601;51.356;12.458;2023-01-10T13:24:54;12.88;;;3.78;;
65033;SDS011;51601;51.356;12.458;2023-01-10T13:29:20;11.20;;;3.85;;
65033;SDS011;51601;51.356;12.458;2023-01-10T13:33:50;8.73;;;2.80;;
65033;SDS011;51601;51.356;12.458;2023-01-10T13:38:19;10.10;;;3.60;;
65033;SDS011;51601;51.356;12.458;2023-01-10T13:42:44;14.50;;;3.80;;
65033;SDS011;51601;51.356;12.458;2023-01-10T13:47:56;7.63;;;2.83;;
65033;SDS011;51601;51.356;12.458;2023-01-10T13:52:40;10.25;;;3.10;;
65033;SDS011;51601;51.356;12.458;2023-01-10T14:02:02;7.47;;;2.97;;
65033;SDS011;51601;51.356;12.458;2023-01-10T14:06:53;11.00;;;3.22;;
65033;SDS011;51601;51.356;12.458;2023-01-10T14:11:19;7.65;;;2.88;;
65033;SDS011;51601;51.356;12.458;2023-01-10T14:15:46;14.77;;;3.08;;
65033;SDS011;51601;51.356;12.458;2023-01-10T14:20:13;8.30;;;3.37;;
65033;SDS011;51601;51.356;12.458;2023-01-10T14:24:42;6.78;;;2.70;;
65033;SDS011;51601;51.356;12.458;2023-01-10T14:29:14;8.57;;;2.90;;
65033;SDS011;51601;51.356;12.458;2023-01-10T14:33:53;7.10;;;3.20;;
65033;SDS011;51601;51.356;12.458;2023-01-10T14:38:25;11.00;;;3.05;;
65033;SDS011;51601;51.356;12.458;2023-01-10T14:42:52;8.95;;;3.20;;
65033;SDS011;51601;51.356;12.458;2023-01-10T14:47:27;13.20;;;3.20;;
65033;SDS011;51601;51.356;12.458;2023-01-10T14:52:10;9.05;;;3.08;;
65033;SDS011;51601;51.356;12.458;2023-01-10T14:56:42;11.40;;;2.60;;
65033;SDS011;51601;51.356;12.458;2023-01-10T15:01:10;9.20;;;3.03;;
65033;SDS011;51601;51.356;12.458;2023-01-10T15:05:45;9.40;;;2.70;;
65033;SDS011;51601;51.356;12.458;2023-01-10T15:10:16;7.30;;;2.92;;
65033;SDS011;51601;51.356;12.458;2023-01-10T15:14:44;8.43;;;3.10;;
65033;SDS011;51601;51.356;12.458;2023-01-10T15:19:10;10.53;;;2.80;;
65033;SDS011;51601;51.356;12.458;2023-01-10T15:23:42;9.57;;;2.78;;
65033;SDS011;51601;51.356;12.458;2023-01-10T15:28:11;9.98;;;3.30;;
65033;SDS011;51601;51.356;12.458;2023-01-10T15:32:37;8.70;;;2.60;;
65033;SDS011;51601;51.356;12.458;2023-01-10T15:37:02;8.98;;;2.58;;
65033;SDS011;51601;51.356;12.458;2023-01-10T15:41:31;9.02;;;2.50;;
65033;SDS011;51601;51.356;12.458;2023-01-10T15:45:59;8.52;;;2.10;;
65033;SDS011;51601;51.356;12.458;2023-01-10T15:50:27;9.70;;;2.57;;
65033;SDS011;51601;51.356;12.458;2023-01-10T15:54:54;9.60;;;2.70;;
65033;SDS011;51601;51.356;12.458;2023-01-10T15:59:21;8.45;;;3.08;;
65033;SDS011;51601;51.356;12.458;2023-01-10T16:03:47;9.90;;;2.63;;
65033;SDS011;51601;51.356;12.458;2023-01-10T16:08:13;8.55;;;2.70;;
65033;SDS011;51601;51.356;12.458;2023-01-10T16:12:38;11.27;;;3.00;;
65033;SDS011;51601;51.356;12.458;2023-01-10T16:17:22;11.63;;;3.00;;
65033;SDS011;51601;51.356;12.458;2023-01-10T16:21:47;7.68;;;2.65;;
65033;SDS011;51601;51.356;12.458;2023-01-10T16:26:18;10.15;;;3.00;;
65033;SDS011;51601;51.356;12.458;2023-01-10T16:30:42;8.48;;;2.75;;
65033;SDS011;51601;51.356;12.458;2023-01-10T16:35:09;10.97;;;2.90;;
65033;SDS011;51601;51.356;12.458;2023-01-10T16:39:33;8.88;;;2.60;;
65033;SDS011;51601;51.356;12.458;2023-01-10T16:43:57;5.80;;;1.98;;
65033;SDS011;51601;51.356;12.458;2023-01-10T16:48:21;8.53;;;3.17;;
65033;SDS011;51601;51.356;12.458;2023-01-10T16:52:47;10.00;;;2.88;;
65033;SDS011;51601;51.356;12.458;2023-01-10T16:57:10;8.27;;;2.70;;
65033;SDS011;51601;51.356;12.458;2023-01-10T17:01:36;8.13;;;2.80;;
65033;SDS011;51601;51.356;12.458;2023-01-10T17:06:02;10.32;;;2.90;;
65033;SDS011;51601;51.356;12.458;2023-01-10T17:10:28;7.70;;;2.03;;
65033;SDS011;51601;51.356;12.458;2023-01-10T17:14:53;7.22;;;2.30;;
65033;SDS011;51601;51.356;12.458;2023-01-10T17:19:17;6.30;;;2.47;;
65033;SDS011;51601;51.356;12.458;2023-01-10T17:23:41;7.95;;;2.22;;
65033;SDS011;51601;51.356;12.458;2023-01-10T17:28:07;7.75;;;1.90;;
65033;SDS011;51601;51.356;12.458;2023-01-10T17:32:33;8.93;;;2.53;;
65033;SDS011;51601;51.356;12.458;2023-01-10T17:36:57;5.93;;;2.03;;
65033;SDS011;51601;51.356;12.458;2023-01-10T17:41:16;9.48;;;2.50;;
65033;SDS011;51601;51.356;12.458;2023-01-10T17:45:38;9.07;;;2.10;;
65033;SDS011;51601;51.356;12.458;2023-01-10T17:49:58;6.63;;;1.60;;
65033;SDS011;51601;51.356;12.458;2023-01-10T17:54:22;11.70;;;2.00;;
65033;SDS011;51601;51.356;12.458;2023-01-10T17:58:46;6.95;;;1.90;;
65033;SDS011;51601;51.356;12.458;2023-01-10T18:03:13;8.80;;;2.17;;
65033;SDS011;51601;51.356;12.458;2023-01-10T18:07:38;12.88;;;3.90;;
65033;SDS011;51601;51.356;12.458;2023-01-10T18:12:02;12.48;;;2.95;;
65033;SDS011;51601;51.356;12.458;2023-01-10T18:16:26;6.87;;;2.67;;
65033;SDS011;51601;51.356;12.458;2023-01-10T18:20:52;7.10;;;2.28;;
65033;SDS011;51601;51.356;12.458;2023-01-10T18:25:18;6.88;;;1.80;;
65033;SDS011;51601;51.356;12.458;2023-01-10T18:29:42;5.87;;;1.80;;
65033;SDS011;51601;51.356;12.458;2023-01-10T18:34:06;4.85;;;1.55;;
65033;SDS011;51601;51.356;12.458;2023-01-10T18:38:32;5.10;;;1.95;;
65033;SDS011;51601;51.356;12.458;2023-01-10T18:42:56;6.10;;;1.90;;
65033;SDS011;51601;51.356;12.458;2023-01-10T18:47:20;5.77;;;2.00;;
65033;SDS011;51601;51.356;12.458;2023-01-10T18:51:44;7.72;;;2.25;;
65033;SDS011;51601;51.356;12.458;2023-01-10T18:56:10;10.70;;;3.05;;
65033;SDS011;51601;51.356;12.458;2023-01-10T19:00:34;7.20;;;1.77;;
65033;SDS011;51601;51.356;12.458;2023-01-10T19:04:58;8.25;;;1.92;;
65033;SDS011;51601;51.356;12.458;2023-01-10T19:09:22;6.65;;;1.90;;
65033;SDS011;51601;51.356;12.458;2023-01-10T19:13:48;10.40;;;2.37;;
65033;SDS011;51601;51.356;12.458;2023-01-10T19:18:14;8.88;;;2.10;;
65033;SDS011;51601;51.356;12.458;2023-01-10T19:22:39;11.57;;;2.88;;
65033;SDS011;51601;51.356;12.458;2023-01-10T19:27:03;8.20;;;2.40;;
65033;SDS011;51601;51.356;12.458;2023-01-10T19:31:28;7.50;;;2.50;;
65033;SDS011;51601;51.356;12.458;2023-01-10T19:35:53;7.38;;;2.05;;
65033;SDS011;51601;51.356;12.458;2023-01-10T19:40:17;5.53;;;1.75;;
65033;SDS011;51601;51.356;12.458;2023-01-10T19:44:41;9.47;;;2.20;;
65033;SDS011;51601;51.356;12.458;2023-01-10T19:49:09;8.57;;;1.80;;
65033;SDS011;51601;51.356;12.458;2023-01-10T19:53:40;10.55;;;2.63;;
65033;SDS011;51601;51.356;12.458;2023-01-10T19:58:07;7.20;;;2.53;;
65033;SDS011;51601;51.356;12.458;2023-01-10T20:02:31;13.15;;;2.92;;
65033;SDS011;51601;51.356;12.458;2023-01-10T20:06:57;9.70;;;2.17;;
65033;SDS011;51601;51.356;12.458;2023-01-10T20:11:21;7.50;;;2.55;;
65033;SDS011;51601;51.356;12.458;2023-01-10T20:15:47;10.40;;;3.17;;
65033;SDS011;51601;51.356;12.458;2023-01-10T20:20:11;9.18;;;2.70;;
65033;SDS011;51601;51.356;12.458;2023-01-10T20:24:37;9.40;;;2.40;;
65033;SDS011;51601;51.356;12.458;2023-01-10T20:29:01;6.97;;;2.10;;
65033;SDS011;51601;51.356;12.458;2023-01-10T20:33:26;6.18;;;2.42;;
65033;SDS011;51601;51.356;12.458;2023-01-10T20:37:50;9.32;;;2.70;;
65033;SDS011;51601;51.356;12.458;2023-01-10T20:42:16;5.60;;;1.97;;
65033;SDS011;51601;51.356;12.458;2023-01-10T20:46:40;11.07;;;2.60;;
65033;SDS011;51601;51.356;12.458;2023-01-10T20:51:04;10.65;;;3.03;;
65033;SDS011;51601;51.356;12.458;2023-01-10T20:55:31;7.30;;;2.28;;
65033;SDS011;51601;51.356;12.458;2023-01-10T20:59:58;8.87;;;2.07;;
65033;SDS011;51601;51.356;12.458;2023-01-10T21:04:22;10.52;;;2.53;;
65033;SDS011;51601;51.356;12.458;2023-01-10T21:08:46;12.02;;;2.60;;
65033;SDS011;51601;51.356;12.458;2023-01-10T21:13:11;7.60;;;2.60;;
65033;SDS011;51601;51.356;12.458;2023-01-10T21:17:37;8.43;;;2.20;;
65033;SDS011;51601;51.356;12.458;2023-01-10T21:22:02;4.68;;;1.55;;
65033;SDS011;51601;51.356;12.458;2023-01-10T21:26:26;7.70;;;2.43;;
65033;SDS011;51601;51.356;12.458;2023-01-10T21:30:51;5.88;;;2.20;;
65033;SDS011;51601;51.356;12.458;2023-01-10T21:35:16;9.82;;;2.60;;
65033;SDS011;51601;51.356;12.458;2023-01-10T21:39:40;10.02;;;2.30;;
65033;SDS011;51601;51.356;12.458;2023-01-10T21:44:05;8.13;;;2.03;;
65033;SDS011;51601;51.356;12.458;2023-01-10T21:48:29;10.77;;;2.42;;
65033;SDS011;51601;51.356;12.458;2023-01-10T21:52:54;11.05;;;2.25;;
65033;SDS011;51601;51.356;12.458;2023-01-10T21:57:18;7.47;;;2.00;;
65033;SDS011;51601;51.356;12.458;2023-01-10T22:01:44;8.55;;;1.92;;
65033;SDS011;51601;51.356;12.458;2023-01-10T22:06:08;9.90;;;2.33;;
65033;SDS011;51601;51.356;12.458;2023-01-10T22:10:34;13.37;;;1.90;;
65033;SDS011;51601;51.356;12.458;2023-01-10T22:14:58;12.57;;;2.85;;
65033;SDS011;51601;51.356;12.458;2023-01-10T22:19:22;9.48;;;2.53;;
65033;SDS011;51601;51.356;12.458;2023-01-10T22:23:46;8.32;;;2.10;;
65033;SDS011;51601;51.356;12.458;2023-01-10T22:28:11;6.40;;;2.20;;
65033;SDS011;51601;51.356;12.458;2023-01-10T22:32:35;12.07;;;2.35;;
65033;SDS011;51601;51.356;12.458;2023-01-10T22:36:59;9.50;;;2.22;;
65033;SDS011;51601;51.356;12.458;2023-01-10T22:41:23;9.90;;;2.20;;
65033;SDS011;51601;51.356;12.458;2023-01-10T22:45:49;5.68;;;1.70;;
65033;SDS011;51601;51.356;12.458;2023-01-10T22:50:14;7.72;;;1.85;;
65033;SDS011;51601;51.356;12.458;2023-01-10T22:54:38;9.93;;;2.77;;
65033;SDS011;51601;51.356;12.458;2023-01-10T22:59:02;9.55;;;2.20;;
65033;SDS011;51601;51.356;12.458;2023-01-10T23:03:28;7.70;;;2.35;;
65033;SDS011;51601;51.356;12.458;2023-01-10T23:07:52;6.55;;;2.03;;
65033;SDS011;51601;51.356;12.458;2023-01-10T23:12:16;5.13;;;1.60;;
65033;SDS011;51601;51.356;12.458;2023-01-10T23:16:40;11.55;;;2.58;;
65033;SDS011;51601;51.356;12.458;2023-01-10T23:21:05;8.23;;;2.03;;
65033;SDS011;51601;51.356;12.458;2023-01-10T23:25:31;9.93;;;2.03;;
65033;SDS011;51601;51.356;12.458;2023-01-10T23:29:54;5.28;;;1.70;;
65033;SDS011;51601;51.356;12.458;2023-01-10T23:34:18;8.07;;;1.88;;
65033;SDS011;51601;51.356;12.458;2023-01-10T23:38:44;10.03;;;2.20;;
65033;SDS011;51601;51.356;12.458;2023-01-10T23:43:07;8.63;;;2.35;;
65033;SDS011;51601;51.356;12.458;2023-01-10T23:47:31;7.20;;;2.20;;
65033;SDS011;51601;51.356;12.458;2023-01-10T23:51:55;9.35;;;2.22;;
65033;SDS011;51601;51.356;12.458;2023-01-10T23:56:20;6.80;;;1.57;;
